sensor_id;sensor_type;location;lat;lon;timestamp;P1;durP1;ratioP1;P2;durP2;ratioP2
59555;SDS011;45374;52.746;6.304;2022-08-11T00:00:34;8.25;;;5.45;;
59555;SDS011;45374;52.746;6.304;2022-08-11T00:03:05;11.48;;;5.60;;
59555;SDS011;45374;52.746;6.304;2022-08-11T00:05:33;7.57;;;5.75;;
59555;SDS011;45374;52.746;6.304;2022-08-11T00:08:08;7.78;;;5.78;;
59555;SDS011;45374;52.746;6.304;2022-08-11T00:10:35;8.85;;;6.45;;
59555;SDS011;45374;52.746;6.304;2022-08-11T00:13:03;8.68;;;6.40;;
59555;SDS011;45374;52.746;6.304;2022-08-11T00:15:42;8.30;;;5.93;;
59555;SDS011;45374;52.746;6.304;2022-08-11T00:18:09;8.32;;;5.60;;
59555;SDS011;45374;52.746;6.304;2022-08-11T00:20:37;8.60;;;6.10;;
59555;SDS011;45374;52.746;6.304;2022-08-11T00:23:09;6.80;;;5.80;;
59555;SDS011;45374;52.746;6.304;2022-08-11T00:25:45;7.82;;;5.68;;
59555;SDS011;45374;52.746;6.304;2022-08-11T00:30:47;8.25;;;5.85;;
59555;SDS011;45374;52.746;6.304;2022-08-11T00:33:16;8.10;;;6.10;;
59555;SDS011;45374;52.746;6.304;2022-08-11T00:35:44;7.70;;;5.90;;
59555;SDS011;45374;52.746;6.304;2022-08-11T00:38:11;8.10;;;5.90;;
59555;SDS011;45374;52.746;6.304;2022-08-11T00:40:43;7.53;;;5.68;;
59555;SDS011;45374;52.746;6.304;2022-08-11T00:46:01;10.68;;;6.20;;
59555;SDS011;45374;52.746;6.304;2022-08-11T00:48:58;8.15;;;5.60;;
59555;SDS011;45374;52.746;6.304;2022-08-11T01:00:13;8.70;;;6.43;;
59555;SDS011;45374;52.746;6.304;2022-08-11T01:03:03;7.93;;;6.35;;
59555;SDS011;45374;52.746;6.304;2022-08-11T01:14:05;8.15;;;6.45;;
59555;SDS011;45374;52.746;6.304;2022-08-11T01:17:05;9.55;;;6.35;;
59555;SDS011;45374;52.746;6.304;2022-08-11T01:22:57;8.88;;;6.88;;
59555;SDS011;45374;52.746;6.304;2022-08-11T01:37:20;8.38;;;6.68;;
59555;SDS011;45374;52.746;6.304;2022-08-11T01:45:51;11.23;;;7.20;;
59555;SDS011;45374;52.746;6.304;2022-08-11T01:53:59;12.77;;;6.70;;
59555;SDS011;45374;52.746;6.304;2022-08-11T01:56:51;11.88;;;6.53;;
59555;SDS011;45374;52.746;6.304;2022-08-11T01:59:38;11.93;;;7.15;;
59555;SDS011;45374;52.746;6.304;2022-08-11T02:10:44;10.23;;;6.57;;
59555;SDS011;45374;52.746;6.304;2022-08-11T02:19:31;12.05;;;6.57;;
59555;SDS011;45374;52.746;6.304;2022-08-11T02:22:35;10.32;;;7.10;;
59555;SDS011;45374;52.746;6.304;2022-08-11T02:25:36;8.20;;;6.70;;
59555;SDS011;45374;52.746;6.304;2022-08-11T02:30:59;8.57;;;6.45;;
59555;SDS011;45374;52.746;6.304;2022-08-11T02:33:50;12.00;;;8.07;;
59555;SDS011;45374;52.746;6.304;2022-08-11T02:36:26;8.63;;;6.75;;
59555;SDS011;45374;52.746;6.304;2022-08-11T02:39:05;10.02;;;7.43;;
59555;SDS011;45374;52.746;6.304;2022-08-11T02:50:41;13.75;;;8.15;;
59555;SDS011;45374;52.746;6.304;2022-08-11T02:53:35;11.55;;;7.53;;
59555;SDS011;45374;52.746;6.304;2022-08-11T02:56:05;9.73;;;7.47;;
59555;SDS011;45374;52.746;6.304;2022-08-11T02:58:58;9.45;;;7.53;;
59555;SDS011;45374;52.746;6.304;2022-08-11T03:07:27;11.73;;;8.10;;
59555;SDS011;45374;52.746;6.304;2022-08-11T03:12:50;12.25;;;8.38;;
59555;SDS011;45374;52.746;6.304;2022-08-11T03:22:02;14.63;;;8.73;;
59555;SDS011;45374;52.746;6.304;2022-08-11T03:24:57;13.20;;;8.48;;
59555;SDS011;45374;52.746;6.304;2022-08-11T03:27:40;13.60;;;8.43;;
59555;SDS011;45374;52.746;6.304;2022-08-11T03:36:16;14.63;;;9.50;;
59555;SDS011;45374;52.746;6.304;2022-08-11T03:47:59;12.95;;;9.27;;
59555;SDS011;45374;52.746;6.304;2022-08-11T04:04:49;13.60;;;9.43;;
59555;SDS011;45374;52.746;6.304;2022-08-11T04:39:26;16.63;;;11.15;;
59555;SDS011;45374;52.746;6.304;2022-08-11T04:54:53;17.75;;;12.73;;
59555;SDS011;45374;52.746;6.304;2022-08-11T05:12:52;18.77;;;12.65;;
59555;SDS011;45374;52.746;6.304;2022-08-11T05:15:44;16.77;;;11.10;;
59555;SDS011;45374;52.746;6.304;2022-08-11T05:19:11;17.92;;;12.70;;
59555;SDS011;45374;52.746;6.304;2022-08-11T05:21:52;18.48;;;12.77;;
59555;SDS011;45374;52.746;6.304;2022-08-11T05:24:42;18.27;;;12.32;;
59555;SDS011;45374;52.746;6.304;2022-08-11T05:30:37;17.25;;;12.95;;
59555;SDS011;45374;52.746;6.304;2022-08-11T05:33:32;18.15;;;12.73;;
59555;SDS011;45374;52.746;6.304;2022-08-11T05:36:44;20.55;;;13.43;;
59555;SDS011;45374;52.746;6.304;2022-08-11T05:39:15;19.65;;;13.23;;
59555;SDS011;45374;52.746;6.304;2022-08-11T05:42:05;19.95;;;12.93;;
59555;SDS011;45374;52.746;6.304;2022-08-11T05:44:52;22.13;;;14.80;;
59555;SDS011;45374;52.746;6.304;2022-08-11T05:47:39;18.90;;;13.10;;
59555;SDS011;45374;52.746;6.304;2022-08-11T05:50:24;17.48;;;12.32;;
59555;SDS011;45374;52.746;6.304;2022-08-11T05:53:09;19.85;;;13.60;;
59555;SDS011;45374;52.746;6.304;2022-08-11T05:55:56;17.88;;;12.93;;
59555;SDS011;45374;52.746;6.304;2022-08-11T05:58:42;19.40;;;13.50;;
59555;SDS011;45374;52.746;6.304;2022-08-11T06:01:11;21.52;;;13.13;;
59555;SDS011;45374;52.746;6.304;2022-08-11T06:03:44;19.75;;;13.93;;
59555;SDS011;45374;52.746;6.304;2022-08-11T06:06:32;18.15;;;12.80;;
59555;SDS011;45374;52.746;6.304;2022-08-11T06:09:00;17.58;;;12.90;;
59555;SDS011;45374;52.746;6.304;2022-08-11T06:11:26;20.33;;;13.75;;
59555;SDS011;45374;52.746;6.304;2022-08-11T06:13:53;19.10;;;12.68;;
59555;SDS011;45374;52.746;6.304;2022-08-11T06:16:22;20.02;;;12.48;;
59555;SDS011;45374;52.746;6.304;2022-08-11T06:18:52;20.15;;;12.48;;
59555;SDS011;45374;52.746;6.304;2022-08-11T06:21:18;16.80;;;12.68;;
59555;SDS011;45374;52.746;6.304;2022-08-11T06:23:45;18.38;;;12.65;;
59555;SDS011;45374;52.746;6.304;2022-08-11T06:26:12;16.17;;;11.75;;
59555;SDS011;45374;52.746;6.304;2022-08-11T06:28:39;17.33;;;10.88;;
59555;SDS011;45374;52.746;6.304;2022-08-11T06:31:21;17.15;;;12.27;;
59555;SDS011;45374;52.746;6.304;2022-08-11T06:37:38;16.33;;;10.77;;
59555;SDS011;45374;52.746;6.304;2022-08-11T06:39:51;17.27;;;11.13;;
59555;SDS011;45374;52.746;6.304;2022-08-11T06:47:55;16.00;;;9.18;;
59555;SDS011;45374;52.746;6.304;2022-08-11T06:50:25;16.05;;;10.40;;
59555;SDS011;45374;52.746;6.304;2022-08-11T06:53:11;14.98;;;9.32;;
59555;SDS011;45374;52.746;6.304;2022-08-11T06:55:42;15.02;;;9.45;;
59555;SDS011;45374;52.746;6.304;2022-08-11T06:58:32;13.27;;;8.95;;
59555;SDS011;45374;52.746;6.304;2022-08-11T07:01:26;11.73;;;8.65;;
59555;SDS011;45374;52.746;6.304;2022-08-11T07:04:10;13.18;;;8.80;;
59555;SDS011;45374;52.746;6.304;2022-08-11T07:06:45;13.35;;;8.93;;
59555;SDS011;45374;52.746;6.304;2022-08-11T07:12:41;12.48;;;8.05;;
59555;SDS011;45374;52.746;6.304;2022-08-11T07:15:30;12.93;;;8.35;;
59555;SDS011;45374;52.746;6.304;2022-08-11T07:18:06;11.35;;;7.50;;
59555;SDS011;45374;52.746;6.304;2022-08-11T07:20:53;10.35;;;7.20;;
59555;SDS011;45374;52.746;6.304;2022-08-11T07:23:48;9.65;;;6.60;;
59555;SDS011;45374;52.746;6.304;2022-08-11T07:26:35;9.48;;;7.18;;
59555;SDS011;45374;52.746;6.304;2022-08-11T07:29:23;8.50;;;5.95;;
59555;SDS011;45374;52.746;6.304;2022-08-11T07:31:51;8.55;;;5.55;;
59555;SDS011;45374;52.746;6.304;2022-08-11T07:36:55;7.20;;;4.95;;
59555;SDS011;45374;52.746;6.304;2022-08-11T07:39:24;6.77;;;4.90;;
59555;SDS011;45374;52.746;6.304;2022-08-11T07:41:55;8.32;;;5.13;;
59555;SDS011;45374;52.746;6.304;2022-08-11T07:44:22;7.50;;;4.75;;
59555;SDS011;45374;52.746;6.304;2022-08-11T07:46:55;5.95;;;4.40;;
59555;SDS011;45374;52.746;6.304;2022-08-11T07:49:42;8.50;;;4.50;;
59555;SDS011;45374;52.746;6.304;2022-08-11T07:52:29;8.05;;;4.20;;
59555;SDS011;45374;52.746;6.304;2022-08-11T07:55:00;9.63;;;4.32;;
59555;SDS011;45374;52.746;6.304;2022-08-11T07:57:36;5.22;;;4.00;;
59555;SDS011;45374;52.746;6.304;2022-08-11T08:00:21;6.47;;;4.05;;
59555;SDS011;45374;52.746;6.304;2022-08-11T08:03:05;5.60;;;3.60;;
59555;SDS011;45374;52.746;6.304;2022-08-11T08:05:50;9.63;;;4.15;;
59555;SDS011;45374;52.746;6.304;2022-08-11T08:08:36;5.80;;;3.40;;
59555;SDS011;45374;52.746;6.304;2022-08-11T08:11:23;6.97;;;3.50;;
59555;SDS011;45374;52.746;6.304;2022-08-11T08:14:08;7.70;;;3.20;;
59555;SDS011;45374;52.746;6.304;2022-08-11T08:16:53;6.22;;;3.08;;
59555;SDS011;45374;52.746;6.304;2022-08-11T08:19:39;5.25;;;3.10;;
59555;SDS011;45374;52.746;6.304;2022-08-11T08:22:08;4.78;;;3.17;;
59555;SDS011;45374;52.746;6.304;2022-08-11T08:24:35;6.63;;;3.00;;
59555;SDS011;45374;52.746;6.304;2022-08-11T08:27:03;5.13;;;2.78;;
59555;SDS011;45374;52.746;6.304;2022-08-11T08:29:33;4.22;;;2.70;;
59555;SDS011;45374;52.746;6.304;2022-08-11T08:32:20;6.00;;;3.20;;
59555;SDS011;45374;52.746;6.304;2022-08-11T08:34:50;6.97;;;3.03;;
59555;SDS011;45374;52.746;6.304;2022-08-11T08:37:17;7.65;;;2.75;;
59555;SDS011;45374;52.746;6.304;2022-08-11T08:39:45;5.03;;;2.60;;
59555;SDS011;45374;52.746;6.304;2022-08-11T08:42:12;3.95;;;2.65;;
59555;SDS011;45374;52.746;6.304;2022-08-11T08:44:44;5.03;;;2.50;;
59555;SDS011;45374;52.746;6.304;2022-08-11T08:47:14;5.30;;;2.40;;
59555;SDS011;45374;52.746;6.304;2022-08-11T08:49:47;6.90;;;2.80;;
59555;SDS011;45374;52.746;6.304;2022-08-11T08:52:19;3.95;;;2.30;;
59555;SDS011;45374;52.746;6.304;2022-08-11T08:54:48;6.28;;;2.47;;
59555;SDS011;45374;52.746;6.304;2022-08-11T08:57:18;2.78;;;2.40;;
59555;SDS011;45374;52.746;6.304;2022-08-11T08:59:47;6.15;;;2.50;;
59555;SDS011;45374;52.746;6.304;2022-08-11T09:02:14;2.70;;;2.15;;
59555;SDS011;45374;52.746;6.304;2022-08-11T09:04:44;3.50;;;2.10;;
59555;SDS011;45374;52.746;6.304;2022-08-11T09:07:13;15.95;;;2.47;;
59555;SDS011;45374;52.746;6.304;2022-08-11T09:09:42;5.03;;;2.20;;
59555;SDS011;45374;52.746;6.304;2022-08-11T09:12:15;4.53;;;2.22;;
59555;SDS011;45374;52.746;6.304;2022-08-11T09:14:45;3.28;;;1.80;;
59555;SDS011;45374;52.746;6.304;2022-08-11T09:20:08;3.28;;;2.00;;
59555;SDS011;45374;52.746;6.304;2022-08-11T09:22:38;2.40;;;1.92;;
59555;SDS011;45374;52.746;6.304;2022-08-11T09:25:27;5.38;;;2.30;;
59555;SDS011;45374;52.746;6.304;2022-08-11T09:28:14;4.07;;;1.90;;
59555;SDS011;45374;52.746;6.304;2022-08-11T09:30:42;2.70;;;1.88;;
59555;SDS011;45374;52.746;6.304;2022-08-11T09:33:10;2.95;;;1.90;;
59555;SDS011;45374;52.746;6.304;2022-08-11T09:35:39;4.05;;;2.00;;
59555;SDS011;45374;52.746;6.304;2022-08-11T09:38:11;3.38;;;2.20;;
59555;SDS011;45374;52.746;6.304;2022-08-11T09:40:56;3.70;;;1.88;;
59555;SDS011;45374;52.746;6.304;2022-08-11T09:43:24;7.28;;;2.40;;
59555;SDS011;45374;52.746;6.304;2022-08-11T09:46:10;4.80;;;2.30;;
59555;SDS011;45374;52.746;6.304;2022-08-11T09:48:41;5.22;;;2.10;;
59555;SDS011;45374;52.746;6.304;2022-08-11T09:51:09;4.47;;;2.22;;
59555;SDS011;45374;52.746;6.304;2022-08-11T09:53:40;4.68;;;2.33;;
59555;SDS011;45374;52.746;6.304;2022-08-11T09:56:17;3.13;;;2.33;;
59555;SDS011;45374;52.746;6.304;2022-08-11T09:59:04;3.17;;;2.42;;
59555;SDS011;45374;52.746;6.304;2022-08-11T10:01:31;3.40;;;2.70;;
59555;SDS011;45374;52.746;6.304;2022-08-11T10:04:05;4.45;;;2.28;;
59555;SDS011;45374;52.746;6.304;2022-08-11T10:06:39;4.95;;;2.50;;
59555;SDS011;45374;52.746;6.304;2022-08-11T10:09:26;4.55;;;2.80;;
59555;SDS011;45374;52.746;6.304;2022-08-11T10:11:57;4.88;;;2.80;;
59555;SDS011;45374;52.746;6.304;2022-08-11T10:14:26;3.72;;;2.40;;
59555;SDS011;45374;52.746;6.304;2022-08-11T10:17:13;3.55;;;2.20;;
59555;SDS011;45374;52.746;6.304;2022-08-11T10:19:42;4.55;;;1.98;;
59555;SDS011;45374;52.746;6.304;2022-08-11T10:22:11;4.25;;;2.53;;
59555;SDS011;45374;52.746;6.304;2022-08-11T10:24:58;4.93;;;2.60;;
59555;SDS011;45374;52.746;6.304;2022-08-11T10:27:44;4.38;;;2.75;;
59555;SDS011;45374;52.746;6.304;2022-08-11T10:30:13;6.85;;;2.40;;
59555;SDS011;45374;52.746;6.304;2022-08-11T10:32:58;5.53;;;2.40;;
59555;SDS011;45374;52.746;6.304;2022-08-11T10:35:42;3.65;;;2.42;;
59555;SDS011;45374;52.746;6.304;2022-08-11T10:38:11;4.05;;;2.70;;
59555;SDS011;45374;52.746;6.304;2022-08-11T10:40:39;5.40;;;2.60;;
59555;SDS011;45374;52.746;6.304;2022-08-11T10:43:09;5.57;;;2.55;;
59555;SDS011;45374;52.746;6.304;2022-08-11T10:45:39;2.83;;;2.45;;
59555;SDS011;45374;52.746;6.304;2022-08-11T10:48:28;4.00;;;2.70;;
59555;SDS011;45374;52.746;6.304;2022-08-11T10:50:55;4.88;;;2.70;;
59555;SDS011;45374;52.746;6.304;2022-08-11T10:53:39;4.57;;;2.40;;
59555;SDS011;45374;52.746;6.304;2022-08-11T10:56:28;5.22;;;2.90;;
59555;SDS011;45374;52.746;6.304;2022-08-11T10:59:15;3.50;;;2.55;;
59555;SDS011;45374;52.746;6.304;2022-08-11T11:01:42;5.35;;;2.50;;
59555;SDS011;45374;52.746;6.304;2022-08-11T11:04:13;5.10;;;2.30;;
59555;SDS011;45374;52.746;6.304;2022-08-11T11:09:23;3.63;;;2.78;;
59555;SDS011;45374;52.746;6.304;2022-08-11T11:12:02;5.78;;;2.60;;
59555;SDS011;45374;52.746;6.304;2022-08-11T11:14:56;2.90;;;2.30;;
59555;SDS011;45374;52.746;6.304;2022-08-11T11:17:44;3.00;;;1.95;;
59555;SDS011;45374;52.746;6.304;2022-08-11T11:20:22;5.03;;;2.40;;
59555;SDS011;45374;52.746;6.304;2022-08-11T11:22:52;3.45;;;2.28;;
59555;SDS011;45374;52.746;6.304;2022-08-11T11:30:38;3.85;;;2.35;;
59555;SDS011;45374;52.746;6.304;2022-08-11T11:33:19;4.20;;;2.50;;
59555;SDS011;45374;52.746;6.304;2022-08-11T11:36:23;2.75;;;2.00;;
59555;SDS011;45374;52.746;6.304;2022-08-11T11:39:00;4.10;;;2.20;;
59555;SDS011;45374;52.746;6.304;2022-08-11T11:41:26;4.05;;;2.33;;
59555;SDS011;45374;52.746;6.304;2022-08-11T11:43:56;2.45;;;2.20;;
59555;SDS011;45374;52.746;6.304;2022-08-11T11:46:26;4.10;;;2.30;;
59555;SDS011;45374;52.746;6.304;2022-08-11T11:48:53;4.50;;;1.98;;
59555;SDS011;45374;52.746;6.304;2022-08-11T11:51:23;4.13;;;1.90;;
59555;SDS011;45374;52.746;6.304;2022-08-11T11:53:51;5.57;;;2.35;;
59555;SDS011;45374;52.746;6.304;2022-08-11T11:56:17;2.70;;;1.95;;
59555;SDS011;45374;52.746;6.304;2022-08-11T11:58:46;3.45;;;1.80;;
59555;SDS011;45374;52.746;6.304;2022-08-11T12:01:31;3.95;;;2.20;;
59555;SDS011;45374;52.746;6.304;2022-08-11T12:03:58;2.88;;;2.20;;
59555;SDS011;45374;52.746;6.304;2022-08-11T12:06:24;3.78;;;2.05;;
59555;SDS011;45374;52.746;6.304;2022-08-11T12:08:52;4.18;;;2.10;;
59555;SDS011;45374;52.746;6.304;2022-08-11T12:11:20;3.97;;;2.00;;
59555;SDS011;45374;52.746;6.304;2022-08-11T12:14:06;4.28;;;2.45;;
59555;SDS011;45374;52.746;6.304;2022-08-11T12:16:40;5.80;;;2.10;;
59555;SDS011;45374;52.746;6.304;2022-08-11T12:19:09;2.80;;;2.10;;
59555;SDS011;45374;52.746;6.304;2022-08-11T12:21:38;3.58;;;2.20;;
59555;SDS011;45374;52.746;6.304;2022-08-11T12:24:28;4.00;;;2.05;;
59555;SDS011;45374;52.746;6.304;2022-08-11T12:27:13;2.58;;;1.98;;
59555;SDS011;45374;52.746;6.304;2022-08-11T12:30:19;6.18;;;2.00;;
59555;SDS011;45374;52.746;6.304;2022-08-11T12:32:38;4.47;;;2.72;;
59555;SDS011;45374;52.746;6.304;2022-08-11T12:35:05;3.67;;;2.03;;
59555;SDS011;45374;52.746;6.304;2022-08-11T12:37:35;2.63;;;1.90;;
59555;SDS011;45374;52.746;6.304;2022-08-11T12:40:06;4.45;;;2.20;;
59555;SDS011;45374;52.746;6.304;2022-08-11T12:42:55;4.38;;;2.30;;
59555;SDS011;45374;52.746;6.304;2022-08-11T12:45:45;3.58;;;2.10;;
59555;SDS011;45374;52.746;6.304;2022-08-11T12:48:12;3.10;;;1.98;;
59555;SDS011;45374;52.746;6.304;2022-08-11T12:51:02;5.28;;;2.10;;
59555;SDS011;45374;52.746;6.304;2022-08-11T12:53:56;3.55;;;2.08;;
59555;SDS011;45374;52.746;6.304;2022-08-11T12:56:31;4.05;;;2.28;;
59555;SDS011;45374;52.746;6.304;2022-08-11T12:59:22;4.82;;;2.20;;
59555;SDS011;45374;52.746;6.304;2022-08-11T13:02:08;2.75;;;1.90;;
59555;SDS011;45374;52.746;6.304;2022-08-11T13:04:58;4.68;;;2.10;;
59555;SDS011;45374;52.746;6.304;2022-08-11T13:07:32;3.83;;;2.20;;
59555;SDS011;45374;52.746;6.304;2022-08-11T13:10:00;4.65;;;2.10;;
59555;SDS011;45374;52.746;6.304;2022-08-11T13:12:28;3.35;;;2.30;;
59555;SDS011;45374;52.746;6.304;2022-08-11T13:15:22;3.63;;;1.98;;
59555;SDS011;45374;52.746;6.304;2022-08-11T13:17:49;2.85;;;1.98;;
59555;SDS011;45374;52.746;6.304;2022-08-11T13:20:18;9.40;;;2.35;;
59555;SDS011;45374;52.746;6.304;2022-08-11T13:22:46;7.07;;;2.40;;
59555;SDS011;45374;52.746;6.304;2022-08-11T13:25:14;2.92;;;2.10;;
59555;SDS011;45374;52.746;6.304;2022-08-11T13:27:42;3.60;;;1.90;;
59555;SDS011;45374;52.746;6.304;2022-08-11T13:30:09;4.57;;;2.08;;
59555;SDS011;45374;52.746;6.304;2022-08-11T13:32:54;2.05;;;1.85;;
59555;SDS011;45374;52.746;6.304;2022-08-11T13:35:21;6.43;;;2.00;;
59555;SDS011;45374;52.746;6.304;2022-08-11T13:37:47;5.20;;;2.17;;
59555;SDS011;45374;52.746;6.304;2022-08-11T13:40:15;5.97;;;2.20;;
59555;SDS011;45374;52.746;6.304;2022-08-11T13:42:43;3.38;;;1.95;;
59555;SDS011;45374;52.746;6.304;2022-08-11T13:45:10;2.08;;;1.88;;
59555;SDS011;45374;52.746;6.304;2022-08-11T13:47:36;3.13;;;1.70;;
59555;SDS011;45374;52.746;6.304;2022-08-11T13:50:04;3.38;;;1.90;;
59555;SDS011;45374;52.746;6.304;2022-08-11T13:52:31;3.45;;;2.03;;
59555;SDS011;45374;52.746;6.304;2022-08-11T13:54:59;2.20;;;2.00;;
59555;SDS011;45374;52.746;6.304;2022-08-11T13:57:25;2.70;;;1.70;;
59555;SDS011;45374;52.746;6.304;2022-08-11T13:59:53;2.90;;;1.80;;
59555;SDS011;45374;52.746;6.304;2022-08-11T14:02:33;2.83;;;1.70;;
59555;SDS011;45374;52.746;6.304;2022-08-11T14:05:04;3.13;;;1.70;;
59555;SDS011;45374;52.746;6.304;2022-08-11T14:08:01;2.75;;;1.70;;
59555;SDS011;45374;52.746;6.304;2022-08-11T14:10:29;3.90;;;1.92;;
59555;SDS011;45374;52.746;6.304;2022-08-11T14:12:59;3.33;;;1.80;;
59555;SDS011;45374;52.746;6.304;2022-08-11T14:15:46;2.30;;;1.70;;
59555;SDS011;45374;52.746;6.304;2022-08-11T14:20:53;5.47;;;2.22;;
59555;SDS011;45374;52.746;6.304;2022-08-11T14:23:40;3.10;;;2.03;;
59555;SDS011;45374;52.746;6.304;2022-08-11T14:26:10;6.35;;;1.83;;
59555;SDS011;45374;52.746;6.304;2022-08-11T14:28:47;3.20;;;1.70;;
59555;SDS011;45374;52.746;6.304;2022-08-11T14:31:17;1.98;;;1.77;;
59555;SDS011;45374;52.746;6.304;2022-08-11T14:33:43;4.07;;;2.00;;
59555;SDS011;45374;52.746;6.304;2022-08-11T14:36:11;2.25;;;1.70;;
59555;SDS011;45374;52.746;6.304;2022-08-11T14:38:37;2.70;;;1.77;;
59555;SDS011;45374;52.746;6.304;2022-08-11T14:41:04;4.50;;;2.13;;
59555;SDS011;45374;52.746;6.304;2022-08-11T14:43:51;2.75;;;1.90;;
59555;SDS011;45374;52.746;6.304;2022-08-11T14:46:37;2.75;;;1.90;;
59555;SDS011;45374;52.746;6.304;2022-08-11T14:49:23;4.18;;;2.45;;
59555;SDS011;45374;52.746;6.304;2022-08-11T14:51:51;5.20;;;1.85;;
59555;SDS011;45374;52.746;6.304;2022-08-11T14:54:21;2.75;;;1.90;;
59555;SDS011;45374;52.746;6.304;2022-08-11T14:57:08;3.45;;;2.00;;
59555;SDS011;45374;52.746;6.304;2022-08-11T14:59:34;3.88;;;1.95;;
59555;SDS011;45374;52.746;6.304;2022-08-11T15:02:02;3.50;;;2.00;;
59555;SDS011;45374;52.746;6.304;2022-08-11T15:04:48;5.70;;;1.80;;
59555;SDS011;45374;52.746;6.304;2022-08-11T15:07:14;4.35;;;1.80;;
59555;SDS011;45374;52.746;6.304;2022-08-11T15:09:41;3.33;;;1.90;;
59555;SDS011;45374;52.746;6.304;2022-08-11T15:12:11;5.07;;;2.00;;
59555;SDS011;45374;52.746;6.304;2022-08-11T15:14:43;2.10;;;1.90;;
59555;SDS011;45374;52.746;6.304;2022-08-11T15:17:29;3.03;;;1.98;;
59555;SDS011;45374;52.746;6.304;2022-08-11T15:19:57;3.70;;;1.80;;
59555;SDS011;45374;52.746;6.304;2022-08-11T15:22:45;7.13;;;2.00;;
59555;SDS011;45374;52.746;6.304;2022-08-11T15:25:29;3.80;;;1.80;;
59555;SDS011;45374;52.746;6.304;2022-08-11T15:27:58;9.05;;;1.92;;
59555;SDS011;45374;52.746;6.304;2022-08-11T15:30:44;3.25;;;2.10;;
59555;SDS011;45374;52.746;6.304;2022-08-11T15:33:30;3.47;;;2.35;;
59555;SDS011;45374;52.746;6.304;2022-08-11T15:36:17;3.65;;;2.10;;
59555;SDS011;45374;52.746;6.304;2022-08-11T15:39:11;4.70;;;2.08;;
59555;SDS011;45374;52.746;6.304;2022-08-11T15:41:44;4.25;;;2.58;;
59555;SDS011;45374;52.746;6.304;2022-08-11T15:44:39;5.70;;;2.13;;
59555;SDS011;45374;52.746;6.304;2022-08-11T15:47:27;6.00;;;2.10;;
59555;SDS011;45374;52.746;6.304;2022-08-11T15:50:00;4.22;;;1.83;;
59555;SDS011;45374;52.746;6.304;2022-08-11T15:52:30;4.80;;;2.00;;
59555;SDS011;45374;52.746;6.304;2022-08-11T15:54:59;2.75;;;1.95;;
59555;SDS011;45374;52.746;6.304;2022-08-11T15:57:26;2.70;;;2.13;;
59555;SDS011;45374;52.746;6.304;2022-08-11T16:00:13;4.03;;;2.42;;
59555;SDS011;45374;52.746;6.304;2022-08-11T16:02:58;3.00;;;2.30;;
59555;SDS011;45374;52.746;6.304;2022-08-11T16:05:47;9.27;;;2.10;;
59555;SDS011;45374;52.746;6.304;2022-08-11T16:08:15;4.53;;;2.00;;
59555;SDS011;45374;52.746;6.304;2022-08-11T16:10:44;4.05;;;1.98;;
59555;SDS011;45374;52.746;6.304;2022-08-11T16:13:10;3.00;;;1.80;;
59555;SDS011;45374;52.746;6.304;2022-08-11T16:15:40;2.05;;;1.70;;
59555;SDS011;45374;52.746;6.304;2022-08-11T16:18:29;3.88;;;2.00;;
59555;SDS011;45374;52.746;6.304;2022-08-11T16:21:09;5.93;;;2.20;;
59555;SDS011;45374;52.746;6.304;2022-08-11T16:26:04;4.03;;;2.00;;
59555;SDS011;45374;52.746;6.304;2022-08-11T16:28:32;4.28;;;1.90;;
59555;SDS011;45374;52.746;6.304;2022-08-11T16:31:00;5.10;;;1.80;;
59555;SDS011;45374;52.746;6.304;2022-08-11T16:33:26;3.28;;;2.03;;
59555;SDS011;45374;52.746;6.304;2022-08-11T16:35:54;4.93;;;1.90;;
59555;SDS011;45374;52.746;6.304;2022-08-11T16:38:39;5.40;;;1.60;;
59555;SDS011;45374;52.746;6.304;2022-08-11T16:41:08;2.97;;;1.85;;
59555;SDS011;45374;52.746;6.304;2022-08-11T16:43:48;4.13;;;1.73;;
59555;SDS011;45374;52.746;6.304;2022-08-11T16:46:32;2.42;;;1.70;;
59555;SDS011;45374;52.746;6.304;2022-08-11T16:49:30;2.50;;;1.55;;
59555;SDS011;45374;52.746;6.304;2022-08-11T16:51:58;5.78;;;1.95;;
59555;SDS011;45374;52.746;6.304;2022-08-11T16:54:28;2.45;;;1.73;;
59555;SDS011;45374;52.746;6.304;2022-08-11T16:56:55;3.45;;;1.83;;
59555;SDS011;45374;52.746;6.304;2022-08-11T16:59:42;4.97;;;1.65;;
59555;SDS011;45374;52.746;6.304;2022-08-11T17:02:11;2.55;;;1.90;;
59555;SDS011;45374;52.746;6.304;2022-08-11T17:04:58;10.95;;;2.28;;
59555;SDS011;45374;52.746;6.304;2022-08-11T17:07:48;2.38;;;1.92;;
59555;SDS011;45374;52.746;6.304;2022-08-11T17:10:37;5.50;;;1.70;;
59555;SDS011;45374;52.746;6.304;2022-08-11T17:13:32;2.55;;;1.70;;
59555;SDS011;45374;52.746;6.304;2022-08-11T17:16:02;4.13;;;1.63;;
59555;SDS011;45374;52.746;6.304;2022-08-11T17:18:36;3.28;;;2.20;;
59555;SDS011;45374;52.746;6.304;2022-08-11T17:21:12;3.55;;;1.70;;
59555;SDS011;45374;52.746;6.304;2022-08-11T17:24:00;2.90;;;1.95;;
59555;SDS011;45374;52.746;6.304;2022-08-11T17:26:34;3.97;;;2.13;;
59555;SDS011;45374;52.746;6.304;2022-08-11T17:32:06;4.57;;;2.08;;
59555;SDS011;45374;52.746;6.304;2022-08-11T17:35:05;9.93;;;9.13;;
59555;SDS011;45374;52.746;6.304;2022-08-11T17:37:52;5.50;;;2.15;;
59555;SDS011;45374;52.746;6.304;2022-08-11T17:40:41;4.57;;;2.50;;
59555;SDS011;45374;52.746;6.304;2022-08-11T17:43:30;4.35;;;2.30;;
59555;SDS011;45374;52.746;6.304;2022-08-11T17:46:15;6.25;;;2.40;;
59555;SDS011;45374;52.746;6.304;2022-08-11T17:49:01;5.93;;;2.78;;
59555;SDS011;45374;52.746;6.304;2022-08-11T17:51:31;3.55;;;2.42;;
59555;SDS011;45374;52.746;6.304;2022-08-11T17:54:16;3.28;;;2.05;;
59555;SDS011;45374;52.746;6.304;2022-08-11T17:57:01;3.85;;;2.10;;
59555;SDS011;45374;52.746;6.304;2022-08-11T17:59:45;5.20;;;2.38;;
59555;SDS011;45374;52.746;6.304;2022-08-11T18:02:42;5.15;;;2.25;;
59555;SDS011;45374;52.746;6.304;2022-08-11T18:05:28;4.50;;;2.80;;
59555;SDS011;45374;52.746;6.304;2022-08-11T18:07:59;3.33;;;2.05;;
59555;SDS011;45374;52.746;6.304;2022-08-11T18:10:46;5.65;;;2.67;;
59555;SDS011;45374;52.746;6.304;2022-08-11T18:13:32;7.28;;;2.60;;
59555;SDS011;45374;52.746;6.304;2022-08-11T18:16:25;7.55;;;2.13;;
59555;SDS011;45374;52.746;6.304;2022-08-11T18:19:09;4.65;;;2.50;;
59555;SDS011;45374;52.746;6.304;2022-08-11T18:21:56;3.92;;;2.50;;
59555;SDS011;45374;52.746;6.304;2022-08-11T18:24:50;7.05;;;2.63;;
59555;SDS011;45374;52.746;6.304;2022-08-11T18:27:41;7.90;;;2.60;;
59555;SDS011;45374;52.746;6.304;2022-08-11T18:30:29;6.10;;;2.22;;
59555;SDS011;45374;52.746;6.304;2022-08-11T18:33:18;4.90;;;2.60;;
59555;SDS011;45374;52.746;6.304;2022-08-11T18:36:09;4.63;;;2.70;;
59555;SDS011;45374;52.746;6.304;2022-08-11T18:38:55;5.93;;;2.90;;
59555;SDS011;45374;52.746;6.304;2022-08-11T18:41:42;5.15;;;2.50;;
59555;SDS011;45374;52.746;6.304;2022-08-11T18:44:29;5.75;;;2.95;;
59555;SDS011;45374;52.746;6.304;2022-08-11T18:47:17;7.00;;;2.83;;
59555;SDS011;45374;52.746;6.304;2022-08-11T18:50:04;6.90;;;2.78;;
59555;SDS011;45374;52.746;6.304;2022-08-11T18:52:52;7.45;;;2.60;;
59555;SDS011;45374;52.746;6.304;2022-08-11T18:55:37;6.28;;;2.30;;
59555;SDS011;45374;52.746;6.304;2022-08-11T18:58:28;3.15;;;2.58;;
59555;SDS011;45374;52.746;6.304;2022-08-11T19:01:13;5.35;;;2.70;;
59555;SDS011;45374;52.746;6.304;2022-08-11T19:04:00;4.13;;;2.47;;
59555;SDS011;45374;52.746;6.304;2022-08-11T19:06:47;4.72;;;2.58;;
59555;SDS011;45374;52.746;6.304;2022-08-11T19:09:36;4.65;;;2.72;;
59555;SDS011;45374;52.746;6.304;2022-08-11T19:12:24;3.10;;;2.58;;
59555;SDS011;45374;52.746;6.304;2022-08-11T19:15:13;5.43;;;2.40;;
59555;SDS011;45374;52.746;6.304;2022-08-11T19:18:00;5.38;;;2.70;;
59555;SDS011;45374;52.746;6.304;2022-08-11T19:20:45;4.78;;;2.75;;
59555;SDS011;45374;52.746;6.304;2022-08-11T19:23:32;5.03;;;2.67;;